TAF LFMY
AMD LFMY 071920Z 0719/0815 CNL=
METAR LFMY
LFMY 080230Z AUTO 06005KT 030V090 9999 DZ OVC017/// ///TCU 07/07 Q1002=
LFMY 080200Z AUTO 07008KT 9999 -RA OVC017 07/07 Q1003=
LFMY 080130Z AUTO 07007KT 040V100 9999 -DZ OVC018 07/07 Q1004=
LFMY 080100Z AUTO 06010KT 9999 OVC017 07/07 Q1004=
LFMY 080030Z AUTO 06009KT 8000 -RA OVC015/// ///TCU 07/07 Q1005=
WC LFMY
WS LFMY
WV LFMY